الصفحة الرئيسية
METAR-TAF:

METAR-TAF

مطار :

زنجان, إيران

دائرة عرض: 36-41N, خط طول: 048-29E, ارتفاع: 1663 متر

مراقبة الطقس الحالي

تاريخ ووقت الإصدار 41 دقيقة قبل الساعة 14:00UTC
ريح 12 عقدة من الشرق/الشمال الشرقي
درجة الحرارة 14°درجة مئوية
الرطوبة 47%
ضغط 1022 hPa
الرؤية 10 كم أو أكثر
غيوم متفرقة على ارتفاع 3500 قدم
غيوم مفككة على ارتفاع 17000 قدم

METAR: OITZ 231400Z 06012KT 9999 SCT035 BKN170 14/03 Q1022 A3019

زمن: 19:11 (14:41 UTC)


TAF: مفقودة

أرصاد الطقس والتوقعات من أكثر من 4000 مطار (تقارير الطقس للمطار METAR والتنبؤ بالطقس بالمطارTAF).

المحطات المتاحة هي النقط الصفراء والحمراء على الخريطة.

حرك المؤشر فوق النقطة لمعرفة اسم المحطة.

ثم انقر لمعرفة أرصاد وتوقعات الطقس.

لتغيير الخارطة: اضغط على الأزرار الخضراء مع رمز الصليب الأسود للتكبير. على الزر الأخضر مع شرطة للتصغير، أو على الأسهم الخضراء للخرائط المجاورة.


METAR-TAF: